createdAt,value
2023-11-30T00:00:13.916Z,839.82
2023-11-30T00:01:13.958Z,839.91
2023-11-30T00:02:13.948Z,839.94
2023-11-30T00:03:13.928Z,839.95
2023-11-30T00:04:13.900Z,839.95
2023-11-30T00:05:13.842Z,839.89
2023-11-30T00:06:13.867Z,839.87
2023-11-30T00:07:13.835Z,839.82
2023-11-30T00:08:13.815Z,839.83
2023-11-30T00:09:13.831Z,839.81
2023-11-30T00:10:13.791Z,839.78
2023-11-30T00:11:13.792Z,839.79
2023-11-30T00:12:13.804Z,839.81
2023-11-30T00:13:13.778Z,839.83
2023-11-30T00:14:13.747Z,839.82
2023-11-30T00:15:13.769Z,839.80
2023-11-30T00:16:13.742Z,839.81
2023-11-30T00:17:13.726Z,839.77
2023-11-30T00:18:13.802Z,839.71
2023-11-30T00:19:13.690Z,839.73
2023-11-30T00:20:13.701Z,839.68
2023-11-30T00:21:13.746Z,839.64
2023-11-30T00:22:13.673Z,839.64
2023-11-30T00:23:13.659Z,839.64
2023-11-30T00:24:13.664Z,839.65
2023-11-30T00:25:13.626Z,839.63
2023-11-30T00:26:13.617Z,839.69
2023-11-30T00:27:13.649Z,839.71
2023-11-30T00:28:13.608Z,839.72
2023-11-30T00:29:13.583Z,839.74
2023-11-30T00:30:13.661Z,839.78
2023-11-30T00:31:13.590Z,839.73
2023-11-30T00:32:13.553Z,839.73
2023-11-30T00:33:13.659Z,839.78
2023-11-30T00:34:13.552Z,839.78
2023-11-30T00:35:13.522Z,839.72
2023-11-30T00:36:13.567Z,839.74
2023-11-30T00:37:13.501Z,839.74
2023-11-30T00:38:13.494Z,839.66
2023-11-30T00:39:13.527Z,839.68
2023-11-30T00:40:13.474Z,839.70
2023-11-30T00:41:13.472Z,839.72
2023-11-30T00:42:13.513Z,839.71
2023-11-30T00:43:13.489Z,839.71
2023-11-30T00:44:13.454Z,839.75
2023-11-30T00:45:13.435Z,839.74
2023-11-30T00:46:13.428Z,839.73
2023-11-30T00:47:13.402Z,839.72
2023-11-30T00:48:13.484Z,839.78
2023-11-30T00:49:13.373Z,839.73
2023-11-30T00:50:13.383Z,839.70
2023-11-30T00:51:13.362Z,839.72
2023-11-30T00:52:13.359Z,839.74
2023-11-30T00:53:13.334Z,839.69
2023-11-30T00:54:13.375Z,839.70
2023-11-30T00:55:13.328Z,839.68
2023-11-30T00:56:13.305Z,839.69
2023-11-30T00:57:13.305Z,839.68
2023-11-30T00:58:13.294Z,839.70
2023-11-30T00:59:13.288Z,839.69
2023-11-30T01:00:13.274Z,839.69
2023-11-30T01:01:13.272Z,839.67
2023-11-30T01:02:13.256Z,839.68
2023-11-30T01:03:13.261Z,839.68
2023-11-30T01:04:13.269Z,839.64
2023-11-30T01:05:13.214Z,839.66
2023-11-30T01:06:13.256Z,839.66
2023-11-30T01:07:13.178Z,839.65
2023-11-30T01:08:13.189Z,839.68
2023-11-30T01:09:13.205Z,839.71
2023-11-30T01:10:13.147Z,839.73
2023-11-30T01:11:13.169Z,839.68
2023-11-30T01:12:13.151Z,839.65
2023-11-30T01:13:13.116Z,839.66
2023-11-30T01:14:13.157Z,839.64
2023-11-30T01:15:13.130Z,839.58
2023-11-30T01:16:13.121Z,839.50
2023-11-30T01:17:13.080Z,839.55
2023-11-30T01:18:13.224Z,839.50
2023-11-30T01:19:13.083Z,839.45
2023-11-30T01:20:13.033Z,839.41
2023-11-30T01:21:13.065Z,839.36
2023-11-30T01:22:13.068Z,839.31
2023-11-30T01:23:13.022Z,839.30
2023-11-30T01:24:13.039Z,839.33
2023-11-30T01:25:12.982Z,839.31
2023-11-30T01:26:12.990Z,839.28
2023-11-30T01:27:12.988Z,839.29
2023-11-30T01:28:12.965Z,839.21
2023-11-30T01:29:12.977Z,839.19
2023-11-30T01:30:13.010Z,839.20
2023-11-30T01:31:12.955Z,839.28
2023-11-30T01:32:12.914Z,839.28
2023-11-30T01:33:13.027Z,839.21
2023-11-30T01:34:12.908Z,839.11
2023-11-30T01:35:12.908Z,839.06
2023-11-30T01:36:12.884Z,839.03
2023-11-30T01:37:12.862Z,839.05
2023-11-30T01:38:12.878Z,839.07
2023-11-30T01:39:12.852Z,839.12
2023-11-30T01:40:12.857Z,839.09
2023-11-30T01:41:12.836Z,839.06
2023-11-30T01:42:12.833Z,839.04
2023-11-30T01:43:12.799Z,839.01
2023-11-30T01:44:12.801Z,838.97
2023-11-30T01:45:12.827Z,838.94
2023-11-30T01:46:12.858Z,838.93
2023-11-30T01:47:12.758Z,838.87
2023-11-30T01:48:12.885Z,838.84
2023-11-30T01:49:12.759Z,838.81
2023-11-30T01:50:12.747Z,838.78
2023-11-30T01:51:12.745Z,838.80
2023-11-30T01:52:12.771Z,838.80
2023-11-30T01:53:12.691Z,838.83
2023-11-30T01:54:12.768Z,838.83
2023-11-30T01:55:12.671Z,838.84
2023-11-30T01:56:12.677Z,838.80
2023-11-30T01:57:12.690Z,838.78
2023-11-30T01:58:12.645Z,838.74
2023-11-30T01:59:12.628Z,838.75
2023-11-30T02:00:12.670Z,838.78
2023-11-30T02:01:12.646Z,838.75
2023-11-30T02:02:12.643Z,838.75
2023-11-30T02:03:12.674Z,838.76
2023-11-30T02:04:12.684Z,838.85
2023-11-30T02:05:12.588Z,838.75
2023-11-30T02:06:12.568Z,838.73
2023-11-30T02:07:12.560Z,838.69
2023-11-30T02:08:12.532Z,838.77
2023-11-30T02:09:12.559Z,838.70
2023-11-30T02:10:12.556Z,838.72
2023-11-30T02:11:12.559Z,838.70
2023-11-30T02:12:12.536Z,838.72
2023-11-30T02:13:12.489Z,838.68
2023-11-30T02:15:31.200Z,838.67
2023-11-30T02:16:31.151Z,838.76
2023-11-30T02:17:31.186Z,838.76
2023-11-30T02:18:31.171Z,838.78
2023-11-30T02:19:31.124Z,838.83
2023-11-30T02:20:31.110Z,838.83
2023-11-30T02:21:31.162Z,838.79
2023-11-30T02:22:31.088Z,838.76
2023-11-30T02:23:31.093Z,838.70
2023-11-30T02:24:31.100Z,838.70
2023-11-30T02:25:31.103Z,838.75
2023-11-30T02:26:31.030Z,838.75
2023-11-30T02:27:31.056Z,838.73
2023-11-30T02:28:31.012Z,838.69
2023-11-30T02:29:31.011Z,838.71
2023-11-30T02:30:31.072Z,838.70
2023-11-30T02:31:31.013Z,838.62
2023-11-30T02:32:31.000Z,838.64
2023-11-30T02:33:30.989Z,838.68
2023-11-30T02:34:30.974Z,838.62
2023-11-30T02:35:30.939Z,838.61
2023-11-30T02:36:30.978Z,838.60
2023-11-30T02:37:30.916Z,838.63
2023-11-30T02:38:30.928Z,838.64
2023-11-30T02:39:30.958Z,838.62
2023-11-30T02:40:30.879Z,838.63
2023-11-30T02:41:30.896Z,838.62
2023-11-30T02:42:30.948Z,838.62
2023-11-30T02:43:30.882Z,838.60
2023-11-30T02:44:30.873Z,838.59
2023-11-30T02:45:30.897Z,838.61
2023-11-30T02:46:30.884Z,838.55
2023-11-30T02:47:30.831Z,838.57
2023-11-30T02:48:30.866Z,838.55
2023-11-30T02:49:30.806Z,838.50
2023-11-30T02:50:30.777Z,838.56
2023-11-30T02:51:30.801Z,838.59
2023-11-30T02:52:30.771Z,838.55
2023-11-30T02:53:30.756Z,838.54
2023-11-30T02:54:30.781Z,838.53
2023-11-30T02:55:30.749Z,838.53
2023-11-30T02:56:30.715Z,838.52
2023-11-30T02:57:30.819Z,838.44
2023-11-30T02:58:30.704Z,838.46
2023-11-30T02:59:30.700Z,838.48
2023-11-30T03:00:30.708Z,838.45
2023-11-30T03:01:30.750Z,838.45
2023-11-30T03:02:30.698Z,838.44
2023-11-30T03:03:30.844Z,838.42
2023-11-30T03:04:30.629Z,838.47
2023-11-30T03:05:30.626Z,838.41
2023-11-30T03:06:30.641Z,838.41
2023-11-30T03:07:30.648Z,838.39
2023-11-30T03:08:30.589Z,838.40
2023-11-30T03:09:30.646Z,838.36
2023-11-30T03:10:30.634Z,838.29
2023-11-30T03:11:30.551Z,838.21
2023-11-30T03:12:30.619Z,838.19
2023-11-30T03:13:30.551Z,838.08
2023-11-30T03:14:30.537Z,838.06
2023-11-30T03:15:30.576Z,838.02
2023-11-30T03:16:30.551Z,838.00
2023-11-30T03:17:30.565Z,837.96
2023-11-30T03:18:30.614Z,837.93
2023-11-30T03:19:30.488Z,837.94
2023-11-30T03:20:30.453Z,837.94
2023-11-30T03:21:30.570Z,837.94
2023-11-30T03:22:30.434Z,837.92
2023-11-30T03:23:30.425Z,837.90
2023-11-30T03:24:30.461Z,837.89
2023-11-30T03:25:30.411Z,837.89
2023-11-30T03:26:30.405Z,837.84
2023-11-30T03:27:30.412Z,837.88
2023-11-30T03:28:30.413Z,837.99
2023-11-30T03:29:30.380Z,838.01
2023-11-30T03:30:30.381Z,838.06
2023-11-30T03:31:30.395Z,838.11
2023-11-30T03:32:30.349Z,838.11
2023-11-30T03:33:30.384Z,838.19
2023-11-30T03:34:30.310Z,838.20
2023-11-30T03:35:30.308Z,838.23
2023-11-30T03:36:30.520Z,838.22
2023-11-30T03:37:30.273Z,838.21
2023-11-30T03:38:30.274Z,838.21
2023-11-30T03:39:30.351Z,838.16
2023-11-30T03:40:30.239Z,838.14
2023-11-30T03:41:30.256Z,838.13
2023-11-30T03:42:30.305Z,838.15
2023-11-30T03:43:30.228Z,838.16
2023-11-30T03:44:30.203Z,838.21
2023-11-30T03:45:32.713Z,838.28
2023-11-30T03:46:30.372Z,838.31
2023-11-30T03:47:30.199Z,838.28
2023-11-30T03:48:30.207Z,838.24
2023-11-30T03:49:30.152Z,838.23
2023-11-30T03:50:30.136Z,838.18
2023-11-30T03:51:30.175Z,838.14
2023-11-30T03:52:30.133Z,838.10
2023-11-30T03:53:30.120Z,838.05
2023-11-30T03:54:30.153Z,838.00
2023-11-30T03:55:30.111Z,837.99
2023-11-30T03:56:30.062Z,837.93
2023-11-30T03:57:30.105Z,837.90
2023-11-30T03:58:30.060Z,837.86
2023-11-30T03:59:30.035Z,837.84
2023-11-30T04:00:30.099Z,837.87
2023-11-30T04:01:30.167Z,837.85
2023-11-30T04:02:30.112Z,837.82
2023-11-30T04:03:30.119Z,837.83
2023-11-30T04:04:30.374Z,837.86
2023-11-30T04:05:29.972Z,837.83
2023-11-30T04:06:29.994Z,837.87
2023-11-30T04:07:29.978Z,837.80
2023-11-30T04:08:29.946Z,837.75
2023-11-30T04:09:29.975Z,837.66
2023-11-30T04:10:29.913Z,837.68
2023-11-30T04:11:29.913Z,837.69
2023-11-30T04:12:29.919Z,837.64
2023-11-30T04:13:29.913Z,837.59
2023-11-30T04:14:29.882Z,837.59
2023-11-30T04:15:29.909Z,837.63
2023-11-30T04:16:29.941Z,837.64
2023-11-30T04:17:29.884Z,837.67
2023-11-30T04:18:29.913Z,837.64
2023-11-30T04:19:29.897Z,837.62
2023-11-30T04:20:29.814Z,837.65
2023-11-30T04:21:29.835Z,837.66
2023-11-30T04:22:29.814Z,837.61
2023-11-30T04:23:29.769Z,837.55
2023-11-30T04:24:29.801Z,837.49
2023-11-30T04:25:29.800Z,837.50
2023-11-30T04:26:29.763Z,837.46
2023-11-30T04:27:29.811Z,837.46
2023-11-30T04:28:29.723Z,837.41
2023-11-30T04:29:29.712Z,837.41
2023-11-30T04:30:29.813Z,837.38
2023-11-30T04:31:29.891Z,837.34
2023-11-30T04:32:29.696Z,837.38
2023-11-30T04:33:29.757Z,837.47
2023-11-30T04:34:29.651Z,837.50
2023-11-30T04:35:29.651Z,837.52
2023-11-30T04:36:29.745Z,837.46
2023-11-30T04:37:29.657Z,837.44
2023-11-30T04:38:29.613Z,837.40
2023-11-30T04:39:29.652Z,837.40
2023-11-30T04:40:29.594Z,837.38
2023-11-30T04:41:29.581Z,837.40
2023-11-30T04:42:29.627Z,837.41
2023-11-30T04:43:29.565Z,837.46
2023-11-30T04:44:29.561Z,837.43
2023-11-30T04:45:29.578Z,837.41
2023-11-30T04:46:29.551Z,837.39
2023-11-30T04:47:29.559Z,837.40
2023-11-30T04:48:29.552Z,837.42
2023-11-30T04:49:29.528Z,837.36
2023-11-30T04:50:29.497Z,837.27
2023-11-30T04:51:29.526Z,837.23
2023-11-30T04:52:29.479Z,837.28
2023-11-30T04:53:29.457Z,837.31
2023-11-30T04:54:29.506Z,837.32
2023-11-30T04:55:29.450Z,837.25
2023-11-30T04:56:29.454Z,837.27
2023-11-30T04:57:29.468Z,837.25
2023-11-30T04:58:29.411Z,837.25
2023-11-30T04:59:29.400Z,837.20
2023-11-30T05:00:29.446Z,837.19
2023-11-30T05:01:29.450Z,837.16
2023-11-30T05:02:29.447Z,837.13
2023-11-30T05:03:29.553Z,837.09
2023-11-30T05:04:29.427Z,837.06
2023-11-30T05:05:29.354Z,837.09
2023-11-30T05:06:29.406Z,837.14
2023-11-30T05:07:29.327Z,837.11
2023-11-30T05:08:29.316Z,837.07
2023-11-30T05:09:29.314Z,837.05
2023-11-30T05:10:29.291Z,837.00
2023-11-30T05:11:29.282Z,836.97
2023-11-30T05:12:29.360Z,836.98
2023-11-30T05:13:29.249Z,836.92
2023-11-30T05:14:29.282Z,836.89
2023-11-30T05:15:29.277Z,836.99
2023-11-30T05:16:29.241Z,837.04
2023-11-30T05:17:29.230Z,836.99
2023-11-30T05:18:29.237Z,836.94
2023-11-30T05:19:29.193Z,836.88
2023-11-30T05:20:29.185Z,836.93
2023-11-30T05:21:29.300Z,836.98
2023-11-30T05:22:29.161Z,837.00
2023-11-30T05:23:29.140Z,837.07
2023-11-30T05:24:29.154Z,837.06
2023-11-30T05:25:29.141Z,836.97
2023-11-30T05:26:29.108Z,836.95
2023-11-30T05:27:29.119Z,836.90
2023-11-30T05:28:30.650Z,836.97
2023-11-30T05:29:29.065Z,836.95
2023-11-30T05:30:29.227Z,836.99
2023-11-30T05:31:29.074Z,836.99
2023-11-30T05:32:29.045Z,836.89
2023-11-30T05:33:29.081Z,836.88
2023-11-30T05:34:29.036Z,836.95
2023-11-30T05:35:29.000Z,836.96
2023-11-30T05:36:29.008Z,836.90
2023-11-30T05:37:29.065Z,836.90
2023-11-30T05:38:28.970Z,836.86
2023-11-30T05:39:28.972Z,836.85
2023-11-30T05:40:28.945Z,836.89
2023-11-30T05:41:28.944Z,836.93
2023-11-30T05:42:28.985Z,836.87
2023-11-30T05:43:28.940Z,836.81
2023-11-30T05:44:28.911Z,836.82
2023-11-30T05:45:28.910Z,836.77
2023-11-30T05:46:28.881Z,836.76
2023-11-30T05:47:28.888Z,836.73
2023-11-30T05:48:28.890Z,836.73
2023-11-30T05:49:28.939Z,836.74
2023-11-30T05:50:28.840Z,836.70
2023-11-30T05:51:28.885Z,836.67
2023-11-30T05:52:28.839Z,836.65
2023-11-30T05:53:28.900Z,836.62
2023-11-30T05:54:28.962Z,836.61
2023-11-30T05:55:28.800Z,836.67
2023-11-30T05:56:28.771Z,836.78
2023-11-30T05:57:28.801Z,836.80
2023-11-30T05:58:28.774Z,836.78
2023-11-30T05:59:28.738Z,836.74
2023-11-30T06:00:28.770Z,836.68
2023-11-30T06:01:28.749Z,836.68
2023-11-30T06:02:28.717Z,836.68
2023-11-30T06:03:28.977Z,836.64
2023-11-30T06:04:28.830Z,836.56
2023-11-30T06:05:28.689Z,836.60
2023-11-30T06:06:28.717Z,836.52
2023-11-30T06:07:28.673Z,836.57
2023-11-30T06:08:28.688Z,836.49
2023-11-30T06:09:28.669Z,836.44
2023-11-30T06:10:28.625Z,836.48
2023-11-30T06:11:28.607Z,836.52
2023-11-30T06:12:28.613Z,836.50
2023-11-30T06:13:28.609Z,836.47
2023-11-30T06:14:28.583Z,836.37
2023-11-30T06:15:28.583Z,836.32
2023-11-30T06:16:28.576Z,836.30
2023-11-30T06:17:28.592Z,836.31
2023-11-30T06:18:28.544Z,836.33
2023-11-30T06:19:28.599Z,836.31
2023-11-30T06:20:28.532Z,836.29
2023-11-30T06:21:28.537Z,836.25
2023-11-30T06:22:28.496Z,836.27
2023-11-30T06:23:28.480Z,836.20
2023-11-30T06:24:28.486Z,836.20
2023-11-30T06:25:28.516Z,836.21
2023-11-30T06:26:28.451Z,836.22
2023-11-30T06:27:28.492Z,836.33
2023-11-30T06:28:28.430Z,836.38
2023-11-30T06:29:28.417Z,836.41
2023-11-30T06:30:28.491Z,836.40
2023-11-30T06:31:28.431Z,836.35
2023-11-30T06:32:28.428Z,836.28
2023-11-30T06:33:28.409Z,836.27
2023-11-30T06:34:28.383Z,836.39
2023-11-30T06:35:28.354Z,836.45
2023-11-30T06:36:28.361Z,836.41
2023-11-30T06:37:28.348Z,836.38
2023-11-30T06:38:28.344Z,836.38
2023-11-30T06:39:28.378Z,836.43
2023-11-30T06:40:28.310Z,836.39
2023-11-30T06:41:28.310Z,836.28
2023-11-30T06:42:28.341Z,836.32
2023-11-30T06:43:28.301Z,836.41
2023-11-30T06:44:28.276Z,836.43
2023-11-30T06:45:28.368Z,836.42
2023-11-30T06:46:28.262Z,836.42
2023-11-30T06:47:28.254Z,836.35
2023-11-30T06:48:28.248Z,836.30
2023-11-30T06:49:28.255Z,836.20
2023-11-30T06:50:28.196Z,836.21
2023-11-30T06:51:28.243Z,836.19
2023-11-30T06:52:28.186Z,836.23
2023-11-30T06:53:28.156Z,836.31
2023-11-30T06:54:28.208Z,836.30
2023-11-30T06:55:28.140Z,836.29
2023-11-30T06:56:28.123Z,836.28
2023-11-30T06:57:28.184Z,836.27
2023-11-30T06:58:28.113Z,836.23
2023-11-30T06:59:30.003Z,836.19
2023-11-30T07:00:28.199Z,836.26
2023-11-30T07:01:28.173Z,836.25
2023-11-30T07:02:28.160Z,836.25
2023-11-30T07:03:28.204Z,836.20
2023-11-30T07:04:28.121Z,836.21
2023-11-30T07:05:28.022Z,836.19
2023-11-30T07:06:28.100Z,836.21
2023-11-30T07:07:34.051Z,836.23
2023-11-30T07:08:29.004Z,836.19
2023-11-30T07:09:27.977Z,836.14
2023-11-30T07:10:27.990Z,836.21
2023-11-30T07:11:27.959Z,836.26
2023-11-30T07:12:27.996Z,836.27
2023-11-30T07:13:27.979Z,836.27
2023-11-30T07:14:27.924Z,836.26
2023-11-30T07:15:27.942Z,836.26
2023-11-30T07:16:27.998Z,836.29
2023-11-30T07:17:27.938Z,836.35
2023-11-30T07:18:27.933Z,836.28
2023-11-30T07:19:27.897Z,836.20
2023-11-30T07:20:27.883Z,836.26
2023-11-30T07:21:27.913Z,836.26
2023-11-30T07:22:27.853Z,836.31
2023-11-30T07:23:27.843Z,836.28
2023-11-30T07:24:27.891Z,836.22
2023-11-30T07:25:27.837Z,836.22
2023-11-30T07:26:27.829Z,836.26
2023-11-30T07:27:27.992Z,836.31
2023-11-30T07:28:27.779Z,836.26
2023-11-30T07:29:27.795Z,836.26
2023-11-30T07:30:27.759Z,836.20
2023-11-30T07:31:27.788Z,836.18
2023-11-30T07:32:27.770Z,836.15
2023-11-30T07:33:27.787Z,836.18
2023-11-30T07:34:27.720Z,836.21
2023-11-30T07:35:27.700Z,836.21
2023-11-30T07:36:27.711Z,836.21
2023-11-30T07:37:27.702Z,836.22
2023-11-30T07:38:27.681Z,836.23
2023-11-30T07:39:27.769Z,836.35
2023-11-30T07:40:27.667Z,836.40
2023-11-30T07:41:27.647Z,836.37
2023-11-30T07:42:32.973Z,836.36
2023-11-30T07:43:28.630Z,836.35
2023-11-30T07:44:27.613Z,836.36
2023-11-30T07:45:27.651Z,836.36
2023-11-30T07:46:27.612Z,836.28
2023-11-30T07:47:27.627Z,836.22
2023-11-30T07:48:27.598Z,836.19
2023-11-30T07:49:27.563Z,836.32
2023-11-30T07:50:27.554Z,836.46
2023-11-30T07:51:27.556Z,836.43
2023-11-30T07:52:27.534Z,836.32
2023-11-30T07:53:27.525Z,836.21
2023-11-30T07:54:27.539Z,836.18
2023-11-30T07:55:27.506Z,836.23
2023-11-30T07:56:27.488Z,836.23
2023-11-30T07:57:27.528Z,836.15
2023-11-30T07:58:27.488Z,836.13
2023-11-30T07:59:27.447Z,836.10
2023-11-30T08:00:27.523Z,836.11
2023-11-30T08:01:27.504Z,836.08
2023-11-30T08:02:27.408Z,836.10
2023-11-30T08:03:27.501Z,836.13
2023-11-30T08:04:27.550Z,836.13
2023-11-30T08:05:27.381Z,836.15
2023-11-30T08:06:27.377Z,836.15
2023-11-30T08:07:27.385Z,836.16
2023-11-30T08:08:27.345Z,836.21
2023-11-30T08:09:27.357Z,836.22
2023-11-30T08:10:27.328Z,836.14
2023-11-30T08:11:27.326Z,836.08
2023-11-30T08:12:27.345Z,836.18
2023-11-30T08:13:27.315Z,836.21
2023-11-30T08:14:27.286Z,836.28
2023-11-30T08:15:27.320Z,836.30
2023-11-30T08:16:27.265Z,836.25
2023-11-30T08:17:27.292Z,836.28
2023-11-30T08:18:27.392Z,836.21
2023-11-30T08:19:27.231Z,836.19
2023-11-30T08:20:27.216Z,836.23
2023-11-30T08:21:27.212Z,836.24
2023-11-30T08:22:27.204Z,836.29
2023-11-30T08:23:27.204Z,836.36
2023-11-30T08:24:27.193Z,836.35
2023-11-30T08:25:27.179Z,836.33
2023-11-30T08:26:27.177Z,836.39
2023-11-30T08:27:27.173Z,836.41
2023-11-30T08:28:27.146Z,836.43
2023-11-30T08:29:27.120Z,836.46
2023-11-30T08:30:27.190Z,836.44
2023-11-30T08:31:27.127Z,836.44
2023-11-30T08:32:27.109Z,836.47
2023-11-30T08:33:27.142Z,836.50
2023-11-30T08:34:27.070Z,836.52
2023-11-30T08:35:27.058Z,836.49
2023-11-30T08:36:27.063Z,836.45
2023-11-30T08:37:27.048Z,836.33
2023-11-30T08:38:27.029Z,836.43
2023-11-30T08:39:27.079Z,836.44
2023-11-30T08:40:27.002Z,836.47
2023-11-30T08:41:27.040Z,836.52
2023-11-30T08:42:27.054Z,836.55
2023-11-30T08:43:26.977Z,836.61
2023-11-30T08:44:26.966Z,836.60
2023-11-30T08:45:27.007Z,836.61
2023-11-30T08:46:26.966Z,836.59
2023-11-30T08:47:26.969Z,836.52
2023-11-30T08:48:27.083Z,836.62
2023-11-30T08:49:26.941Z,836.66
2023-11-30T08:50:26.907Z,836.61
2023-11-30T08:51:26.956Z,836.61
2023-11-30T08:52:26.884Z,836.47
2023-11-30T08:53:26.868Z,836.49
2023-11-30T08:54:26.890Z,836.46
2023-11-30T08:55:26.860Z,836.53
2023-11-30T08:56:26.841Z,836.62
2023-11-30T08:57:26.893Z,836.55
2023-11-30T08:58:26.833Z,836.52
2023-11-30T08:59:26.821Z,836.43
2023-11-30T09:00:26.852Z,836.44
2023-11-30T09:01:26.925Z,836.43
2023-11-30T09:02:26.836Z,836.42
2023-11-30T09:03:26.871Z,836.34
2023-11-30T09:04:26.757Z,836.36
2023-11-30T09:05:26.776Z,836.35
2023-11-30T09:06:26.802Z,836.27
2023-11-30T09:07:26.739Z,836.26
2023-11-30T09:08:26.704Z,836.22
2023-11-30T09:09:26.765Z,836.25
2023-11-30T09:10:26.686Z,836.30
2023-11-30T09:11:26.677Z,836.33
2023-11-30T09:12:26.714Z,836.42
2023-11-30T09:13:26.676Z,836.40
2023-11-30T09:14:26.664Z,836.35
2023-11-30T09:15:26.663Z,836.27
2023-11-30T09:16:26.804Z,836.23
2023-11-30T09:17:26.654Z,836.27
2023-11-30T09:18:26.617Z,836.30
2023-11-30T09:19:26.612Z,836.32
2023-11-30T09:20:26.598Z,836.30
2023-11-30T09:21:27.297Z,836.31
2023-11-30T09:22:26.572Z,836.34
2023-11-30T09:23:26.554Z,836.44
2023-11-30T09:24:26.565Z,836.44
2023-11-30T09:25:26.566Z,836.40
2023-11-30T09:26:26.538Z,836.33
2023-11-30T09:27:26.537Z,836.30
2023-11-30T09:28:26.528Z,836.26
2023-11-30T09:29:26.509Z,836.30
2023-11-30T09:30:26.546Z,836.37
2023-11-30T09:31:26.512Z,836.33
2023-11-30T09:32:26.480Z,836.31
2023-11-30T09:33:26.514Z,836.37
2023-11-30T09:34:26.437Z,836.35
2023-11-30T09:35:26.495Z,836.38
2023-11-30T09:36:26.451Z,836.34
2023-11-30T09:37:26.444Z,836.28
2023-11-30T09:38:26.409Z,836.32
2023-11-30T09:39:26.443Z,836.32
2023-11-30T09:40:26.374Z,836.32
2023-11-30T09:41:26.363Z,836.27
2023-11-30T09:42:26.367Z,836.26
2023-11-30T09:43:26.338Z,836.24
2023-11-30T09:44:26.359Z,836.24
2023-11-30T09:45:26.371Z,836.24
2023-11-30T09:46:26.348Z,836.29
2023-11-30T09:47:26.308Z,836.35
2023-11-30T09:48:26.310Z,836.33
2023-11-30T09:49:26.266Z,836.21
2023-11-30T09:50:26.265Z,836.23
2023-11-30T09:51:26.382Z,836.15
2023-11-30T09:52:26.238Z,836.12
2023-11-30T09:53:26.258Z,836.16
2023-11-30T09:54:26.240Z,836.14
2023-11-30T09:55:26.198Z,836.13
2023-11-30T09:56:26.189Z,836.13
2023-11-30T09:57:26.215Z,836.17
2023-11-30T09:58:26.170Z,836.18
2023-11-30T09:59:26.170Z,836.15
2023-11-30T10:00:26.187Z,836.15
2023-11-30T10:01:26.208Z,836.13
2023-11-30T10:02:26.147Z,836.10
2023-11-30T10:03:26.169Z,836.08
2023-11-30T10:04:26.127Z,836.06
2023-11-30T10:05:26.097Z,836.08
2023-11-30T10:06:26.107Z,836.06
2023-11-30T10:07:26.084Z,836.05
2023-11-30T10:08:26.061Z,836.06
2023-11-30T10:09:26.112Z,836.07
2023-11-30T10:10:26.047Z,836.07
2023-11-30T10:11:26.034Z,836.06
2023-11-30T10:12:26.148Z,836.10
2023-11-30T10:13:26.004Z,836.06
2023-11-30T10:14:26.019Z,836.00
2023-11-30T10:15:26.001Z,835.98
2023-11-30T10:16:25.985Z,835.95
2023-11-30T10:17:26.035Z,835.94
2023-11-30T10:18:26.016Z,835.88
2023-11-30T10:19:25.979Z,835.94
2023-11-30T10:20:25.920Z,835.99
2023-11-30T10:21:25.949Z,836.06
2023-11-30T10:22:25.904Z,836.01
2023-11-30T10:23:25.999Z,835.96
2023-11-30T10:24:26.037Z,835.92
2023-11-30T10:25:25.896Z,836.04
2023-11-30T10:26:25.864Z,836.06
2023-11-30T10:27:25.914Z,836.04
2023-11-30T10:28:25.853Z,836.01
2023-11-30T10:29:25.838Z,836.01
2023-11-30T10:30:25.892Z,836.07
2023-11-30T10:31:25.798Z,836.10
2023-11-30T10:32:25.792Z,836.01
2023-11-30T10:33:25.999Z,835.96
2023-11-30T10:34:25.852Z,835.84
2023-11-30T10:35:25.764Z,835.91
2023-11-30T10:36:25.774Z,835.90
2023-11-30T10:37:25.742Z,835.88
2023-11-30T10:38:25.762Z,835.84
2023-11-30T10:39:25.824Z,835.75
2023-11-30T10:40:25.723Z,835.76
2023-11-30T10:41:25.728Z,835.84
2023-11-30T10:42:25.759Z,835.82
2023-11-30T10:43:25.671Z,835.77
2023-11-30T10:44:25.682Z,835.70
2023-11-30T10:45:25.681Z,835.81
2023-11-30T10:46:25.756Z,835.84
2023-11-30T10:47:25.626Z,835.82
2023-11-30T10:48:25.791Z,835.73
2023-11-30T10:49:25.684Z,835.69
2023-11-30T10:50:25.597Z,835.66
2023-11-30T10:51:25.602Z,835.68
2023-11-30T10:52:25.594Z,835.63
2023-11-30T10:53:25.558Z,835.56
2023-11-30T10:54:25.618Z,835.56
2023-11-30T10:55:25.544Z,835.57
2023-11-30T10:56:25.528Z,835.53
2023-11-30T10:57:25.596Z,835.53
2023-11-30T10:58:25.502Z,835.48
2023-11-30T10:59:25.517Z,835.49
2023-11-30T11:00:25.553Z,835.50
2023-11-30T11:01:25.616Z,835.52
2023-11-30T11:02:25.558Z,835.59
2023-11-30T11:03:25.525Z,835.59
2023-11-30T11:04:26.202Z,835.57
2023-11-30T11:05:25.452Z,835.53
2023-11-30T11:06:25.440Z,835.58
2023-11-30T11:07:25.432Z,835.58
2023-11-30T11:08:25.424Z,835.65
2023-11-30T11:09:25.426Z,835.63
2023-11-30T11:10:25.383Z,835.63
2023-11-30T11:11:25.372Z,835.53
2023-11-30T11:12:25.375Z,835.54
2023-11-30T11:13:25.396Z,835.60
2023-11-30T11:14:25.346Z,835.60
2023-11-30T11:15:25.376Z,835.61
2023-11-30T11:16:25.331Z,835.64
2023-11-30T11:17:25.409Z,835.63
2023-11-30T11:18:25.321Z,835.62
2023-11-30T11:19:25.289Z,835.56
2023-11-30T11:20:26.477Z,835.53
2023-11-30T11:21:25.313Z,835.47
2023-11-30T11:22:25.463Z,835.44
2023-11-30T11:23:25.268Z,835.56
2023-11-30T11:24:25.255Z,835.55
2023-11-30T11:25:25.240Z,835.64
2023-11-30T11:26:25.616Z,835.56
2023-11-30T11:27:25.218Z,835.54
2023-11-30T11:28:25.195Z,835.50
2023-11-30T11:29:30.973Z,835.47
2023-11-30T11:30:26.214Z,835.47
2023-11-30T11:31:25.183Z,835.48
2023-11-30T11:32:26.002Z,835.48
2023-11-30T11:33:25.209Z,835.44
2023-11-30T11:34:25.148Z,835.52
2023-11-30T11:35:25.124Z,835.54
2023-11-30T11:36:25.980Z,835.55
2023-11-30T11:37:25.101Z,835.46
2023-11-30T11:38:25.118Z,835.44
2023-11-30T11:39:25.107Z,835.43
2023-11-30T11:40:25.087Z,835.41
2023-11-30T11:41:25.053Z,835.50
2023-11-30T11:42:25.072Z,835.46
2023-11-30T11:43:25.038Z,835.43
2023-11-30T11:44:25.411Z,835.42
2023-11-30T11:45:25.102Z,835.47
2023-11-30T11:46:25.126Z,835.45
2023-11-30T11:47:25.071Z,835.41
2023-11-30T11:48:24.991Z,835.46
2023-11-30T11:49:24.963Z,835.47
2023-11-30T11:50:24.965Z,835.45
2023-11-30T11:51:26.393Z,835.44
2023-11-30T11:52:24.953Z,835.37
2023-11-30T11:53:24.925Z,835.38
2023-11-30T11:54:24.937Z,835.27
2023-11-30T11:55:24.917Z,835.32
2023-11-30T11:56:24.885Z,835.38
2023-11-30T11:57:26.285Z,835.41
2023-11-30T11:58:24.878Z,835.43
2023-11-30T11:59:24.858Z,835.40
2023-11-30T12:00:24.863Z,835.35
2023-11-30T12:01:24.941Z,835.33
2023-11-30T12:02:24.884Z,835.34
2023-11-30T12:03:25.766Z,835.36
2023-11-30T12:04:24.867Z,835.34
2023-11-30T12:05:24.794Z,835.30
2023-11-30T12:06:24.821Z,835.33
2023-11-30T12:07:24.789Z,835.39
2023-11-30T12:08:24.759Z,835.39
2023-11-30T12:09:24.800Z,835.37
2023-11-30T12:10:24.739Z,835.32
2023-11-30T12:11:24.725Z,835.28
2023-11-30T12:12:24.808Z,835.21
2023-11-30T12:13:24.722Z,835.15
2023-11-30T12:14:24.706Z,835.09
2023-11-30T12:15:24.714Z,835.14
2023-11-30T12:16:24.719Z,835.20
2023-11-30T12:17:24.708Z,835.16
2023-11-30T12:18:24.715Z,835.12
2023-11-30T12:19:24.639Z,835.19
2023-11-30T12:20:24.625Z,835.14
2023-11-30T12:21:24.661Z,835.09
2023-11-30T12:22:24.606Z,835.14
2023-11-30T12:23:24.630Z,835.18
2023-11-30T12:24:24.627Z,835.20
2023-11-30T12:25:24.589Z,835.16
2023-11-30T12:26:24.582Z,835.15
2023-11-30T12:27:24.573Z,835.04
2023-11-30T12:28:24.545Z,835.08
2023-11-30T12:29:24.534Z,835.11